sensor_id;sensor_type;location;lat;lon;timestamp;P1;durP1;ratioP1;P2;durP2;ratioP2
59006;SDS011;44792;52.760;6.726;2023-03-01T00:01:39;19.23;;;10.93;;
59006;SDS011;44792;52.760;6.726;2023-03-01T00:04:05;18.58;;;10.93;;
59006;SDS011;44792;52.760;6.726;2023-03-01T00:06:30;19.67;;;10.75;;
59006;SDS011;44792;52.760;6.726;2023-03-01T00:08:56;17.45;;;11.07;;
59006;SDS011;44792;52.760;6.726;2023-03-01T00:11:23;19.90;;;11.35;;
59006;SDS011;44792;52.760;6.726;2023-03-01T00:13:54;19.35;;;11.30;;
59006;SDS011;44792;52.760;6.726;2023-03-01T00:16:23;17.33;;;10.45;;
59006;SDS011;44792;52.760;6.726;2023-03-01T00:18:56;16.02;;;10.13;;
59006;SDS011;44792;52.760;6.726;2023-03-01T00:21:23;20.60;;;11.52;;
59006;SDS011;44792;52.760;6.726;2023-03-01T00:23:49;22.27;;;12.43;;
59006;SDS011;44792;52.760;6.726;2023-03-01T00:26:15;17.85;;;10.95;;
59006;SDS011;44792;52.760;6.726;2023-03-01T00:28:42;20.10;;;11.07;;
59006;SDS011;44792;52.760;6.726;2023-03-01T00:31:08;14.38;;;9.43;;
59006;SDS011;44792;52.760;6.726;2023-03-01T00:33:36;20.92;;;11.63;;
59006;SDS011;44792;52.760;6.726;2023-03-01T00:36:01;19.00;;;10.60;;
59006;SDS011;44792;52.760;6.726;2023-03-01T00:38:28;18.73;;;10.80;;
59006;SDS011;44792;52.760;6.726;2023-03-01T00:40:54;16.20;;;9.65;;
59006;SDS011;44792;52.760;6.726;2023-03-01T00:43:19;19.35;;;10.65;;
59006;SDS011;44792;52.760;6.726;2023-03-01T00:45:45;15.65;;;10.43;;
59006;SDS011;44792;52.760;6.726;2023-03-01T00:48:11;18.00;;;10.73;;
59006;SDS011;44792;52.760;6.726;2023-03-01T00:50:36;17.75;;;10.85;;
59006;SDS011;44792;52.760;6.726;2023-03-01T00:53:02;19.60;;;10.73;;
59006;SDS011;44792;52.760;6.726;2023-03-01T00:55:28;16.27;;;10.93;;
59006;SDS011;44792;52.760;6.726;2023-03-01T00:57:53;19.83;;;11.77;;
59006;SDS011;44792;52.760;6.726;2023-03-01T01:00:19;26.10;;;11.48;;
59006;SDS011;44792;52.760;6.726;2023-03-01T01:02:45;19.25;;;10.88;;
59006;SDS011;44792;52.760;6.726;2023-03-01T01:05:11;19.02;;;10.38;;
59006;SDS011;44792;52.760;6.726;2023-03-01T01:07:37;19.63;;;10.45;;
59006;SDS011;44792;52.760;6.726;2023-03-01T01:10:03;21.02;;;11.05;;
59006;SDS011;44792;52.760;6.726;2023-03-01T01:12:30;18.05;;;10.63;;
59006;SDS011;44792;52.760;6.726;2023-03-01T01:14:55;19.77;;;11.45;;
59006;SDS011;44792;52.760;6.726;2023-03-01T01:17:21;18.88;;;11.70;;
59006;SDS011;44792;52.760;6.726;2023-03-01T01:19:47;17.38;;;10.70;;
59006;SDS011;44792;52.760;6.726;2023-03-01T01:22:12;21.23;;;12.32;;
59006;SDS011;44792;52.760;6.726;2023-03-01T01:24:38;20.95;;;11.95;;
59006;SDS011;44792;52.760;6.726;2023-03-01T01:27:04;19.05;;;11.35;;
59006;SDS011;44792;52.760;6.726;2023-03-01T01:29:29;18.88;;;12.23;;
59006;SDS011;44792;52.760;6.726;2023-03-01T01:31:56;25.23;;;12.95;;
59006;SDS011;44792;52.760;6.726;2023-03-01T01:34:21;19.75;;;12.05;;
59006;SDS011;44792;52.760;6.726;2023-03-01T01:36:48;18.13;;;11.02;;
59006;SDS011;44792;52.760;6.726;2023-03-01T01:39:15;21.77;;;12.10;;
59006;SDS011;44792;52.760;6.726;2023-03-01T01:41:41;18.73;;;11.85;;
59006;SDS011;44792;52.760;6.726;2023-03-01T01:44:11;19.15;;;11.27;;
59006;SDS011;44792;52.760;6.726;2023-03-01T01:46:38;18.90;;;11.88;;
59006;SDS011;44792;52.760;6.726;2023-03-01T01:49:11;19.25;;;11.85;;
59006;SDS011;44792;52.760;6.726;2023-03-01T01:57:11;20.25;;;11.43;;
59006;SDS011;44792;52.760;6.726;2023-03-01T02:00:03;21.77;;;11.75;;
59006;SDS011;44792;52.760;6.726;2023-03-01T02:02:31;19.83;;;12.02;;
59006;SDS011;44792;52.760;6.726;2023-03-01T02:05:14;25.23;;;12.30;;
59006;SDS011;44792;52.760;6.726;2023-03-01T02:07:49;24.05;;;13.07;;
59006;SDS011;44792;52.760;6.726;2023-03-01T02:10:15;19.25;;;11.73;;
59006;SDS011;44792;52.760;6.726;2023-03-01T02:12:40;21.42;;;12.57;;
59006;SDS011;44792;52.760;6.726;2023-03-01T02:15:07;24.50;;;11.70;;
59006;SDS011;44792;52.760;6.726;2023-03-01T02:17:32;20.33;;;11.10;;
59006;SDS011;44792;52.760;6.726;2023-03-01T02:20:03;17.92;;;11.55;;
59006;SDS011;44792;52.760;6.726;2023-03-01T02:22:38;20.27;;;12.10;;
59006;SDS011;44792;52.760;6.726;2023-03-01T02:25:12;24.38;;;13.02;;
59006;SDS011;44792;52.760;6.726;2023-03-01T02:30:27;21.67;;;12.43;;
59006;SDS011;44792;52.760;6.726;2023-03-01T02:32:54;21.00;;;11.52;;
59006;SDS011;44792;52.760;6.726;2023-03-01T02:35:27;21.92;;;12.20;;
59006;SDS011;44792;52.760;6.726;2023-03-01T02:38:00;16.45;;;10.90;;
59006;SDS011;44792;52.760;6.726;2023-03-01T02:40:28;18.50;;;11.63;;
59006;SDS011;44792;52.760;6.726;2023-03-01T02:42:56;17.20;;;12.45;;
59006;SDS011;44792;52.760;6.726;2023-03-01T02:45:23;19.27;;;11.35;;
59006;SDS011;44792;52.760;6.726;2023-03-01T02:47:49;22.85;;;11.93;;
59006;SDS011;44792;52.760;6.726;2023-03-01T02:55:31;21.38;;;12.48;;
59006;SDS011;44792;52.760;6.726;2023-03-01T02:57:56;18.73;;;11.75;;
59006;SDS011;44792;52.760;6.726;2023-03-01T03:00:24;19.13;;;12.52;;
59006;SDS011;44792;52.760;6.726;2023-03-01T03:02:54;20.50;;;12.63;;
59006;SDS011;44792;52.760;6.726;2023-03-01T03:05:28;22.85;;;12.68;;
59006;SDS011;44792;52.760;6.726;2023-03-01T03:07:55;27.75;;;13.05;;
59006;SDS011;44792;52.760;6.726;2023-03-01T03:10:22;22.13;;;12.63;;
59006;SDS011;44792;52.760;6.726;2023-03-01T03:12:51;24.52;;;14.32;;
59006;SDS011;44792;52.760;6.726;2023-03-01T03:15:19;20.88;;;11.25;;
59006;SDS011;44792;52.760;6.726;2023-03-01T03:17:45;17.67;;;11.68;;
59006;SDS011;44792;52.760;6.726;2023-03-01T03:20:12;22.23;;;11.52;;
59006;SDS011;44792;52.760;6.726;2023-03-01T03:22:44;20.10;;;12.47;;
59006;SDS011;44792;52.760;6.726;2023-03-01T03:25:10;25.60;;;12.32;;
59006;SDS011;44792;52.760;6.726;2023-03-01T03:27:37;20.38;;;12.32;;
59006;SDS011;44792;52.760;6.726;2023-03-01T03:30:04;18.67;;;11.95;;
59006;SDS011;44792;52.760;6.726;2023-03-01T03:32:34;23.25;;;12.52;;
59006;SDS011;44792;52.760;6.726;2023-03-01T03:35:01;18.90;;;12.25;;
59006;SDS011;44792;52.760;6.726;2023-03-01T03:37:28;20.60;;;12.57;;
59006;SDS011;44792;52.760;6.726;2023-03-01T03:40:12;22.40;;;11.68;;
59006;SDS011;44792;52.760;6.726;2023-03-01T03:42:40;20.80;;;11.52;;
59006;SDS011;44792;52.760;6.726;2023-03-01T03:45:06;17.52;;;11.38;;
59006;SDS011;44792;52.760;6.726;2023-03-01T03:47:32;16.77;;;10.85;;
59006;SDS011;44792;52.760;6.726;2023-03-01T03:49:57;16.92;;;10.32;;
59006;SDS011;44792;52.760;6.726;2023-03-01T03:52:23;17.33;;;10.38;;
59006;SDS011;44792;52.760;6.726;2023-03-01T03:54:48;21.10;;;12.02;;
59006;SDS011;44792;52.760;6.726;2023-03-01T03:57:14;17.33;;;11.27;;
59006;SDS011;44792;52.760;6.726;2023-03-01T03:59:40;18.92;;;11.10;;
59006;SDS011;44792;52.760;6.726;2023-03-01T04:02:05;20.98;;;11.57;;
59006;SDS011;44792;52.760;6.726;2023-03-01T04:04:33;19.40;;;11.77;;
59006;SDS011;44792;52.760;6.726;2023-03-01T04:06:59;16.65;;;10.68;;
59006;SDS011;44792;52.760;6.726;2023-03-01T04:09:24;17.48;;;10.85;;
59006;SDS011;44792;52.760;6.726;2023-03-01T04:11:50;18.08;;;12.07;;
59006;SDS011;44792;52.760;6.726;2023-03-01T04:14:15;16.83;;;11.00;;
59006;SDS011;44792;52.760;6.726;2023-03-01T04:16:41;15.93;;;10.60;;
59006;SDS011;44792;52.760;6.726;2023-03-01T04:19:07;17.55;;;10.32;;
59006;SDS011;44792;52.760;6.726;2023-03-01T04:21:34;18.27;;;10.57;;
59006;SDS011;44792;52.760;6.726;2023-03-01T04:24:01;16.35;;;10.50;;
59006;SDS011;44792;52.760;6.726;2023-03-01T04:26:28;20.13;;;11.55;;
59006;SDS011;44792;52.760;6.726;2023-03-01T04:28:54;15.65;;;10.88;;
59006;SDS011;44792;52.760;6.726;2023-03-01T04:31:19;19.48;;;10.80;;
59006;SDS011;44792;52.760;6.726;2023-03-01T04:33:47;19.60;;;11.77;;
59006;SDS011;44792;52.760;6.726;2023-03-01T04:36:21;20.05;;;11.52;;
59006;SDS011;44792;52.760;6.726;2023-03-01T04:38:48;20.65;;;12.82;;
59006;SDS011;44792;52.760;6.726;2023-03-01T04:41:16;19.00;;;11.10;;
59006;SDS011;44792;52.760;6.726;2023-03-01T04:43:43;19.88;;;12.00;;
59006;SDS011;44792;52.760;6.726;2023-03-01T04:46:13;19.67;;;11.23;;
59006;SDS011;44792;52.760;6.726;2023-03-01T04:48:41;23.27;;;12.90;;
59006;SDS011;44792;52.760;6.726;2023-03-01T04:51:08;23.38;;;11.60;;
59006;SDS011;44792;52.760;6.726;2023-03-01T04:53:34;18.70;;;11.60;;
59006;SDS011;44792;52.760;6.726;2023-03-01T04:56:03;19.85;;;12.02;;
59006;SDS011;44792;52.760;6.726;2023-03-01T04:58:29;17.80;;;11.35;;
59006;SDS011;44792;52.760;6.726;2023-03-01T05:00:55;18.80;;;11.38;;
59006;SDS011;44792;52.760;6.726;2023-03-01T05:03:21;14.60;;;9.95;;
59006;SDS011;44792;52.760;6.726;2023-03-01T05:05:48;18.75;;;10.27;;
59006;SDS011;44792;52.760;6.726;2023-03-01T05:08:14;15.63;;;10.00;;
59006;SDS011;44792;52.760;6.726;2023-03-01T05:10:44;20.23;;;11.88;;
59006;SDS011;44792;52.760;6.726;2023-03-01T05:13:11;19.98;;;10.77;;
59006;SDS011;44792;52.760;6.726;2023-03-01T05:15:46;18.80;;;10.98;;
59006;SDS011;44792;52.760;6.726;2023-03-01T05:18:19;20.35;;;11.80;;
59006;SDS011;44792;52.760;6.726;2023-03-01T05:20:44;21.38;;;11.30;;
59006;SDS011;44792;52.760;6.726;2023-03-01T05:23:10;24.77;;;11.38;;
59006;SDS011;44792;52.760;6.726;2023-03-01T05:25:36;16.48;;;10.63;;
59006;SDS011;44792;52.760;6.726;2023-03-01T05:28:05;18.27;;;10.77;;
59006;SDS011;44792;52.760;6.726;2023-03-01T05:30:33;17.27;;;11.07;;
59006;SDS011;44792;52.760;6.726;2023-03-01T05:32:59;22.02;;;10.57;;
59006;SDS011;44792;52.760;6.726;2023-03-01T05:35:25;22.33;;;11.18;;
59006;SDS011;44792;52.760;6.726;2023-03-01T05:37:51;24.60;;;11.55;;
59006;SDS011;44792;52.760;6.726;2023-03-01T05:40:21;20.90;;;11.10;;
59006;SDS011;44792;52.760;6.726;2023-03-01T05:42:49;14.40;;;10.07;;
59006;SDS011;44792;52.760;6.726;2023-03-01T05:45:20;18.58;;;10.25;;
59006;SDS011;44792;52.760;6.726;2023-03-01T05:47:48;17.45;;;10.20;;
59006;SDS011;44792;52.760;6.726;2023-03-01T05:50:24;17.30;;;10.32;;
59006;SDS011;44792;52.760;6.726;2023-03-01T05:53:03;17.67;;;9.80;;
59006;SDS011;44792;52.760;6.726;2023-03-01T05:55:39;16.05;;;9.27;;
59006;SDS011;44792;52.760;6.726;2023-03-01T05:58:06;17.52;;;11.23;;
59006;SDS011;44792;52.760;6.726;2023-03-01T06:00:34;15.30;;;9.65;;
59006;SDS011;44792;52.760;6.726;2023-03-01T06:02:59;16.50;;;10.40;;
59006;SDS011;44792;52.760;6.726;2023-03-01T06:05:25;21.38;;;10.93;;
59006;SDS011;44792;52.760;6.726;2023-03-01T06:07:53;19.40;;;10.35;;
59006;SDS011;44792;52.760;6.726;2023-03-01T06:10:19;19.20;;;10.50;;
59006;SDS011;44792;52.760;6.726;2023-03-01T06:12:46;16.85;;;10.50;;
59006;SDS011;44792;52.760;6.726;2023-03-01T06:15:13;15.65;;;9.63;;
59006;SDS011;44792;52.760;6.726;2023-03-01T06:17:40;19.05;;;9.57;;
59006;SDS011;44792;52.760;6.726;2023-03-01T06:20:08;17.73;;;10.05;;
59006;SDS011;44792;52.760;6.726;2023-03-01T06:22:37;22.30;;;11.85;;
59006;SDS011;44792;52.760;6.726;2023-03-01T06:25:03;18.80;;;10.88;;
59006;SDS011;44792;52.760;6.726;2023-03-01T06:27:30;23.02;;;11.20;;
59006;SDS011;44792;52.760;6.726;2023-03-01T06:29:55;15.85;;;10.70;;
59006;SDS011;44792;52.760;6.726;2023-03-01T06:32:21;16.33;;;10.68;;
59006;SDS011;44792;52.760;6.726;2023-03-01T06:34:46;20.85;;;10.25;;
59006;SDS011;44792;52.760;6.726;2023-03-01T06:37:12;19.45;;;11.23;;
59006;SDS011;44792;52.760;6.726;2023-03-01T06:39:38;17.98;;;10.80;;
59006;SDS011;44792;52.760;6.726;2023-03-01T06:42:04;21.25;;;11.27;;
59006;SDS011;44792;52.760;6.726;2023-03-01T06:44:29;25.85;;;12.30;;
59006;SDS011;44792;52.760;6.726;2023-03-01T06:46:55;22.42;;;12.02;;
59006;SDS011;44792;52.760;6.726;2023-03-01T06:49:20;18.20;;;11.45;;
59006;SDS011;44792;52.760;6.726;2023-03-01T06:51:46;20.90;;;12.32;;
59006;SDS011;44792;52.760;6.726;2023-03-01T06:54:12;27.40;;;10.90;;
59006;SDS011;44792;52.760;6.726;2023-03-01T06:56:38;20.25;;;11.60;;
59006;SDS011;44792;52.760;6.726;2023-03-01T06:59:04;17.80;;;10.80;;
59006;SDS011;44792;52.760;6.726;2023-03-01T07:01:30;21.52;;;11.65;;
59006;SDS011;44792;52.760;6.726;2023-03-01T07:03:55;26.00;;;13.45;;
59006;SDS011;44792;52.760;6.726;2023-03-01T07:06:22;22.58;;;13.20;;
59006;SDS011;44792;52.760;6.726;2023-03-01T07:08:48;20.52;;;12.68;;
59006;SDS011;44792;52.760;6.726;2023-03-01T07:11:14;29.70;;;14.57;;
59006;SDS011;44792;52.760;6.726;2023-03-01T07:13:40;29.88;;;13.20;;
59006;SDS011;44792;52.760;6.726;2023-03-01T07:16:06;28.67;;;14.40;;
59006;SDS011;44792;52.760;6.726;2023-03-01T07:18:32;26.88;;;14.05;;
59006;SDS011;44792;52.760;6.726;2023-03-01T07:20:57;23.83;;;13.63;;
59006;SDS011;44792;52.760;6.726;2023-03-01T07:23:23;29.00;;;13.55;;
59006;SDS011;44792;52.760;6.726;2023-03-01T07:25:54;19.63;;;12.75;;
59006;SDS011;44792;52.760;6.726;2023-03-01T07:28:22;23.77;;;12.73;;
59006;SDS011;44792;52.760;6.726;2023-03-01T07:30:48;22.40;;;12.70;;
59006;SDS011;44792;52.760;6.726;2023-03-01T07:33:14;24.63;;;13.98;;
59006;SDS011;44792;52.760;6.726;2023-03-01T07:35:39;27.05;;;14.07;;
59006;SDS011;44792;52.760;6.726;2023-03-01T07:38:05;28.35;;;15.18;;
59006;SDS011;44792;52.760;6.726;2023-03-01T07:40:31;29.40;;;15.70;;
59006;SDS011;44792;52.760;6.726;2023-03-01T07:42:57;33.10;;;15.40;;
59006;SDS011;44792;52.760;6.726;2023-03-01T07:45:23;26.05;;;15.63;;
59006;SDS011;44792;52.760;6.726;2023-03-01T07:47:50;28.08;;;16.35;;
59006;SDS011;44792;52.760;6.726;2023-03-01T07:50:16;31.35;;;16.75;;
59006;SDS011;44792;52.760;6.726;2023-03-01T07:52:44;34.40;;;16.17;;
59006;SDS011;44792;52.760;6.726;2023-03-01T07:55:10;27.75;;;16.77;;
59006;SDS011;44792;52.760;6.726;2023-03-01T07:57:36;27.55;;;17.23;;
59006;SDS011;44792;52.760;6.726;2023-03-01T08:00:02;31.13;;;17.88;;
59006;SDS011;44792;52.760;6.726;2023-03-01T08:02:28;30.38;;;16.77;;
59006;SDS011;44792;52.760;6.726;2023-03-01T08:04:54;30.88;;;16.67;;
59006;SDS011;44792;52.760;6.726;2023-03-01T08:07:19;28.80;;;16.10;;
59006;SDS011;44792;52.760;6.726;2023-03-01T08:09:45;31.92;;;16.25;;
59006;SDS011;44792;52.760;6.726;2023-03-01T08:12:10;34.75;;;17.10;;
59006;SDS011;44792;52.760;6.726;2023-03-01T08:14:36;30.80;;;16.80;;
59006;SDS011;44792;52.760;6.726;2023-03-01T08:17:01;29.85;;;16.23;;
59006;SDS011;44792;52.760;6.726;2023-03-01T08:19:28;28.63;;;15.77;;
59006;SDS011;44792;52.760;6.726;2023-03-01T08:21:54;27.13;;;15.70;;
59006;SDS011;44792;52.760;6.726;2023-03-01T08:24:23;26.23;;;14.57;;
59006;SDS011;44792;52.760;6.726;2023-03-01T08:26:48;27.10;;;16.10;;
59006;SDS011;44792;52.760;6.726;2023-03-01T08:29:14;27.65;;;15.60;;
59006;SDS011;44792;52.760;6.726;2023-03-01T08:31:40;29.55;;;16.33;;
59006;SDS011;44792;52.760;6.726;2023-03-01T08:34:07;29.70;;;16.23;;
59006;SDS011;44792;52.760;6.726;2023-03-01T08:36:37;27.60;;;14.38;;
59006;SDS011;44792;52.760;6.726;2023-03-01T08:39:05;28.45;;;15.13;;
59006;SDS011;44792;52.760;6.726;2023-03-01T08:41:32;27.10;;;14.45;;
59006;SDS011;44792;52.760;6.726;2023-03-01T08:43:57;24.38;;;13.93;;
59006;SDS011;44792;52.760;6.726;2023-03-01T08:46:27;26.23;;;14.55;;
59006;SDS011;44792;52.760;6.726;2023-03-01T08:48:57;26.13;;;14.80;;
59006;SDS011;44792;52.760;6.726;2023-03-01T08:51:23;24.65;;;13.88;;
59006;SDS011;44792;52.760;6.726;2023-03-01T08:53:49;28.48;;;14.38;;
59006;SDS011;44792;52.760;6.726;2023-03-01T08:56:15;23.35;;;14.57;;
59006;SDS011;44792;52.760;6.726;2023-03-01T08:58:46;20.83;;;12.88;;
59006;SDS011;44792;52.760;6.726;2023-03-01T09:01:14;24.27;;;12.93;;
59006;SDS011;44792;52.760;6.726;2023-03-01T09:03:41;25.13;;;14.15;;
59006;SDS011;44792;52.760;6.726;2023-03-01T09:06:08;25.25;;;13.63;;
59006;SDS011;44792;52.760;6.726;2023-03-01T09:08:35;23.73;;;13.15;;
59006;SDS011;44792;52.760;6.726;2023-03-01T09:11:05;21.10;;;12.63;;
59006;SDS011;44792;52.760;6.726;2023-03-01T09:13:32;21.63;;;13.52;;
59006;SDS011;44792;52.760;6.726;2023-03-01T09:15:58;20.73;;;13.02;;
59006;SDS011;44792;52.760;6.726;2023-03-01T09:18:25;21.63;;;13.35;;
59006;SDS011;44792;52.760;6.726;2023-03-01T09:20:51;20.02;;;11.77;;
59006;SDS011;44792;52.760;6.726;2023-03-01T09:23:16;16.17;;;10.43;;
59006;SDS011;44792;52.760;6.726;2023-03-01T09:25:42;17.88;;;11.18;;
59006;SDS011;44792;52.760;6.726;2023-03-01T09:28:07;15.07;;;10.65;;
59006;SDS011;44792;52.760;6.726;2023-03-01T09:30:33;21.13;;;11.93;;
59006;SDS011;44792;52.760;6.726;2023-03-01T09:32:59;19.75;;;10.50;;
59006;SDS011;44792;52.760;6.726;2023-03-01T09:35:24;19.23;;;10.48;;
59006;SDS011;44792;52.760;6.726;2023-03-01T09:37:50;18.48;;;10.98;;
59006;SDS011;44792;52.760;6.726;2023-03-01T09:40:17;15.43;;;9.48;;
59006;SDS011;44792;52.760;6.726;2023-03-01T09:43:03;18.70;;;8.85;;
59006;SDS011;44792;52.760;6.726;2023-03-01T09:45:38;15.05;;;8.10;;
59006;SDS011;44792;52.760;6.726;2023-03-01T09:48:18;11.93;;;7.63;;
59006;SDS011;44792;52.760;6.726;2023-03-01T09:50:48;14.32;;;8.50;;
59006;SDS011;44792;52.760;6.726;2023-03-01T09:53:22;13.25;;;7.47;;
59006;SDS011;44792;52.760;6.726;2023-03-01T10:01:25;14.68;;;6.55;;
59006;SDS011;44792;52.760;6.726;2023-03-01T10:04:12;10.10;;;6.28;;
59006;SDS011;44792;52.760;6.726;2023-03-01T10:09:52;8.75;;;4.85;;
59006;SDS011;44792;52.760;6.726;2023-03-01T10:12:18;7.07;;;3.78;;
59006;SDS011;44792;52.760;6.726;2023-03-01T10:15:07;9.10;;;3.75;;
59006;SDS011;44792;52.760;6.726;2023-03-01T10:17:41;6.70;;;3.60;;
59006;SDS011;44792;52.760;6.726;2023-03-01T10:20:14;6.60;;;3.88;;
59006;SDS011;44792;52.760;6.726;2023-03-01T10:22:43;6.07;;;3.53;;
59006;SDS011;44792;52.760;6.726;2023-03-01T10:25:15;5.57;;;3.75;;
59006;SDS011;44792;52.760;6.726;2023-03-01T10:27:53;7.13;;;3.85;;
59006;SDS011;44792;52.760;6.726;2023-03-01T10:33:06;6.70;;;4.00;;
59006;SDS011;44792;52.760;6.726;2023-03-01T10:35:42;5.32;;;3.60;;
59006;SDS011;44792;52.760;6.726;2023-03-01T10:38:08;6.40;;;3.78;;
59006;SDS011;44792;52.760;6.726;2023-03-01T10:40:36;5.93;;;4.00;;
59006;SDS011;44792;52.760;6.726;2023-03-01T10:43:16;6.80;;;4.22;;
59006;SDS011;44792;52.760;6.726;2023-03-01T10:45:43;7.45;;;4.30;;
59006;SDS011;44792;52.760;6.726;2023-03-01T10:48:13;7.35;;;3.70;;
59006;SDS011;44792;52.760;6.726;2023-03-01T10:53:35;7.07;;;3.30;;
59006;SDS011;44792;52.760;6.726;2023-03-01T10:56:14;3.83;;;3.13;;
59006;SDS011;44792;52.760;6.726;2023-03-01T10:58:49;6.72;;;3.40;;
59006;SDS011;44792;52.760;6.726;2023-03-01T11:01:25;4.95;;;3.30;;
59006;SDS011;44792;52.760;6.726;2023-03-01T11:06:32;6.45;;;3.60;;
59006;SDS011;44792;52.760;6.726;2023-03-01T11:09:13;6.57;;;3.47;;
59006;SDS011;44792;52.760;6.726;2023-03-01T11:11:53;6.25;;;3.75;;
59006;SDS011;44792;52.760;6.726;2023-03-01T11:17:02;5.35;;;3.50;;
59006;SDS011;44792;52.760;6.726;2023-03-01T11:19:28;6.63;;;3.97;;
59006;SDS011;44792;52.760;6.726;2023-03-01T11:22:14;7.65;;;3.97;;
59006;SDS011;44792;52.760;6.726;2023-03-01T11:24:46;7.63;;;4.85;;
59006;SDS011;44792;52.760;6.726;2023-03-01T11:27:19;6.85;;;4.75;;
59006;SDS011;44792;52.760;6.726;2023-03-01T11:29:59;9.73;;;4.53;;
59006;SDS011;44792;52.760;6.726;2023-03-01T11:32:55;6.50;;;4.07;;
59006;SDS011;44792;52.760;6.726;2023-03-01T11:35:30;6.60;;;4.13;;
59006;SDS011;44792;52.760;6.726;2023-03-01T11:46:19;7.72;;;4.60;;
59006;SDS011;44792;52.760;6.726;2023-03-01T11:48:24;7.10;;;5.07;;
59006;SDS011;44792;52.760;6.726;2023-03-01T12:11:23;8.07;;;4.90;;
59006;SDS011;44792;52.760;6.726;2023-03-01T12:16:40;9.52;;;5.30;;
59006;SDS011;44792;52.760;6.726;2023-03-01T12:30:58;8.05;;;4.80;;
59006;SDS011;44792;52.760;6.726;2023-03-01T12:33:41;8.77;;;5.63;;
59006;SDS011;44792;52.760;6.726;2023-03-01T12:36:12;8.70;;;5.07;;
59006;SDS011;44792;52.760;6.726;2023-03-01T12:47:07;9.65;;;5.20;;
59006;SDS011;44792;52.760;6.726;2023-03-01T12:52:41;11.40;;;5.60;;
59006;SDS011;44792;52.760;6.726;2023-03-01T12:55:19;12.30;;;5.93;;
59006;SDS011;44792;52.760;6.726;2023-03-01T13:04:31;9.85;;;6.13;;
59006;SDS011;44792;52.760;6.726;2023-03-01T13:07:35;9.98;;;5.35;;
59006;SDS011;44792;52.760;6.726;2023-03-01T13:17:55;10.43;;;6.13;;
59006;SDS011;44792;52.760;6.726;2023-03-01T13:23:13;9.02;;;5.75;;
59006;SDS011;44792;52.760;6.726;2023-03-01T13:26:31;11.15;;;5.97;;
59006;SDS011;44792;52.760;6.726;2023-03-01T13:28:42;11.30;;;5.20;;
59006;SDS011;44792;52.760;6.726;2023-03-01T13:33:47;13.77;;;5.30;;
59006;SDS011;44792;52.760;6.726;2023-03-01T13:36:49;9.60;;;5.70;;
59006;SDS011;44792;52.760;6.726;2023-03-01T13:46:53;11.70;;;6.00;;
59006;SDS011;44792;52.760;6.726;2023-03-01T13:49:22;8.73;;;6.22;;
59006;SDS011;44792;52.760;6.726;2023-03-01T13:51:51;12.38;;;6.13;;
59006;SDS011;44792;52.760;6.726;2023-03-01T13:54:29;9.15;;;5.70;;
59006;SDS011;44792;52.760;6.726;2023-03-01T13:56:57;11.30;;;6.75;;
59006;SDS011;44792;52.760;6.726;2023-03-01T13:59:24;13.40;;;6.97;;
59006;SDS011;44792;52.760;6.726;2023-03-01T14:01:58;11.77;;;6.95;;
59006;SDS011;44792;52.760;6.726;2023-03-01T14:04:27;12.98;;;7.63;;
59006;SDS011;44792;52.760;6.726;2023-03-01T14:09:44;14.90;;;7.70;;
59006;SDS011;44792;52.760;6.726;2023-03-01T14:20:32;15.48;;;7.63;;
59006;SDS011;44792;52.760;6.726;2023-03-01T14:23:12;17.98;;;8.30;;
59006;SDS011;44792;52.760;6.726;2023-03-01T14:25:50;17.20;;;8.40;;
59006;SDS011;44792;52.760;6.726;2023-03-01T14:28:25;15.07;;;8.32;;
59006;SDS011;44792;52.760;6.726;2023-03-01T14:30:59;14.68;;;8.05;;
59006;SDS011;44792;52.760;6.726;2023-03-01T14:33:29;19.33;;;8.93;;
59006;SDS011;44792;52.760;6.726;2023-03-01T14:38:29;15.98;;;7.80;;
59006;SDS011;44792;52.760;6.726;2023-03-01T14:41:00;14.07;;;8.07;;
59006;SDS011;44792;52.760;6.726;2023-03-01T14:43:29;16.25;;;8.50;;
59006;SDS011;44792;52.760;6.726;2023-03-01T14:45:56;18.90;;;8.32;;
59006;SDS011;44792;52.760;6.726;2023-03-01T14:48:22;10.63;;;7.43;;
59006;SDS011;44792;52.760;6.726;2023-03-01T14:50:48;15.50;;;7.88;;
59006;SDS011;44792;52.760;6.726;2023-03-01T14:53:19;13.13;;;7.97;;
59006;SDS011;44792;52.760;6.726;2023-03-01T14:55:49;15.23;;;8.60;;
59006;SDS011;44792;52.760;6.726;2023-03-01T14:58:20;12.93;;;7.78;;
59006;SDS011;44792;52.760;6.726;2023-03-01T15:00:58;14.00;;;7.78;;
59006;SDS011;44792;52.760;6.726;2023-03-01T15:03:41;16.90;;;8.18;;
59006;SDS011;44792;52.760;6.726;2023-03-01T15:06:14;14.05;;;7.78;;
59006;SDS011;44792;52.760;6.726;2023-03-01T15:08:44;15.23;;;8.30;;
59006;SDS011;44792;52.760;6.726;2023-03-01T15:11:22;14.32;;;8.32;;
59006;SDS011;44792;52.760;6.726;2023-03-01T15:13:55;15.93;;;8.25;;
59006;SDS011;44792;52.760;6.726;2023-03-01T15:16:24;17.77;;;8.43;;
59006;SDS011;44792;52.760;6.726;2023-03-01T15:18:54;14.50;;;8.45;;
59006;SDS011;44792;52.760;6.726;2023-03-01T15:24:35;13.77;;;8.50;;
59006;SDS011;44792;52.760;6.726;2023-03-01T15:26:45;15.20;;;8.38;;
59006;SDS011;44792;52.760;6.726;2023-03-01T15:29:21;14.35;;;7.60;;
59006;SDS011;44792;52.760;6.726;2023-03-01T15:34:50;14.23;;;7.82;;
59006;SDS011;44792;52.760;6.726;2023-03-01T15:40:24;12.25;;;7.25;;
59006;SDS011;44792;52.760;6.726;2023-03-01T15:42:57;11.73;;;7.00;;
59006;SDS011;44792;52.760;6.726;2023-03-01T15:45:25;10.10;;;6.60;;
59006;SDS011;44792;52.760;6.726;2023-03-01T15:47:56;12.13;;;7.40;;
59006;SDS011;44792;52.760;6.726;2023-03-01T15:50:32;11.82;;;7.13;;
59006;SDS011;44792;52.760;6.726;2023-03-01T15:53:01;16.33;;;8.07;;
59006;SDS011;44792;52.760;6.726;2023-03-01T15:55:32;13.52;;;6.80;;
59006;SDS011;44792;52.760;6.726;2023-03-01T16:00:34;12.60;;;8.07;;
59006;SDS011;44792;52.760;6.726;2023-03-01T16:02:59;12.25;;;7.15;;
59006;SDS011;44792;52.760;6.726;2023-03-01T16:05:26;15.32;;;7.80;;
59006;SDS011;44792;52.760;6.726;2023-03-01T16:07:57;11.93;;;7.03;;
59006;SDS011;44792;52.760;6.726;2023-03-01T16:10:22;13.93;;;8.18;;
59006;SDS011;44792;52.760;6.726;2023-03-01T16:12:49;12.52;;;7.38;;
59006;SDS011;44792;52.760;6.726;2023-03-01T16:15:19;13.00;;;7.70;;
59006;SDS011;44792;52.760;6.726;2023-03-01T16:17:49;12.65;;;7.85;;
59006;SDS011;44792;52.760;6.726;2023-03-01T16:20:15;14.07;;;8.40;;
59006;SDS011;44792;52.760;6.726;2023-03-01T16:22:42;12.52;;;7.93;;
59006;SDS011;44792;52.760;6.726;2023-03-01T16:25:09;13.48;;;8.55;;
59006;SDS011;44792;52.760;6.726;2023-03-01T16:27:35;16.02;;;8.00;;
59006;SDS011;44792;52.760;6.726;2023-03-01T16:30:01;13.73;;;7.85;;
59006;SDS011;44792;52.760;6.726;2023-03-01T16:32:27;13.45;;;8.63;;
59006;SDS011;44792;52.760;6.726;2023-03-01T16:34:53;13.55;;;8.02;;
59006;SDS011;44792;52.760;6.726;2023-03-01T16:37:18;14.63;;;8.30;;
59006;SDS011;44792;52.760;6.726;2023-03-01T16:39:44;13.02;;;7.15;;
59006;SDS011;44792;52.760;6.726;2023-03-01T16:42:09;17.10;;;9.30;;
59006;SDS011;44792;52.760;6.726;2023-03-01T16:44:35;11.73;;;7.78;;
59006;SDS011;44792;52.760;6.726;2023-03-01T16:47:00;14.35;;;8.55;;
59006;SDS011;44792;52.760;6.726;2023-03-01T16:49:26;16.00;;;8.57;;
59006;SDS011;44792;52.760;6.726;2023-03-01T16:51:53;16.52;;;8.98;;
59006;SDS011;44792;52.760;6.726;2023-03-01T16:54:18;14.35;;;8.70;;
59006;SDS011;44792;52.760;6.726;2023-03-01T16:56:44;15.48;;;8.43;;
59006;SDS011;44792;52.760;6.726;2023-03-01T16:59:10;13.55;;;7.95;;